sensor_id;sensor_type;location;lat;lon;timestamp;pressure;altitude;pressure_sealevel;temperature;humidity
45129;BME280;35512;56.312;101.728;2023-04-01T00:01:19;97693.03;;;-11.70;58.51
45129;BME280;35512;56.312;101.728;2023-04-01T00:03:48;97690.72;;;-11.58;58.62
45129;BME280;35512;56.312;101.728;2023-04-01T00:06:18;97700.88;;;-11.42;58.49
45129;BME280;35512;56.312;101.728;2023-04-01T00:08:47;97711.78;;;-11.25;58.52
45129;BME280;35512;56.312;101.728;2023-04-01T00:11:18;97709.94;;;-11.02;58.44
45129;BME280;35512;56.312;101.728;2023-04-01T00:13:47;97719.91;;;-10.78;57.96
45129;BME280;35512;56.312;101.728;2023-04-01T00:16:16;97724.22;;;-10.50;57.80
45129;BME280;35512;56.312;101.728;2023-04-01T00:18:50;97727.91;;;-10.24;57.65
45129;BME280;35512;56.312;101.728;2023-04-01T00:21:20;97729.97;;;-9.99;57.67
45129;BME280;35512;56.312;101.728;2023-04-01T00:23:50;97727.19;;;-9.78;57.71
45129;BME280;35512;56.312;101.728;2023-04-01T00:26:20;97743.34;;;-9.54;57.56
45129;BME280;35512;56.312;101.728;2023-04-01T00:28:50;97743.09;;;-9.32;56.84
45129;BME280;35512;56.312;101.728;2023-04-01T00:31:19;97742.50;;;-9.08;57.08
45129;BME280;35512;56.312;101.728;2023-04-01T00:33:48;97744.66;;;-8.78;56.79
45129;BME280;35512;56.312;101.728;2023-04-01T00:36:20;97750.00;;;-8.46;56.69
45129;BME280;35512;56.312;101.728;2023-04-01T00:38:49;97748.63;;;-8.17;56.49
45129;BME280;35512;56.312;101.728;2023-04-01T00:41:19;97747.88;;;-7.85;56.01
45129;BME280;35512;56.312;101.728;2023-04-01T00:43:50;97749.28;;;-7.51;56.01
45129;BME280;35512;56.312;101.728;2023-04-01T00:46:19;97748.03;;;-7.23;55.73
45129;BME280;35512;56.312;101.728;2023-04-01T00:48:55;97763.72;;;-6.91;55.50
45129;BME280;35512;56.312;101.728;2023-04-01T00:51:27;97759.06;;;-6.70;55.19
45129;BME280;35512;56.312;101.728;2023-04-01T00:53:59;97762.28;;;-6.50;55.14
45129;BME280;35512;56.312;101.728;2023-04-01T00:56:49;97768.28;;;-6.24;55.13
45129;BME280;35512;56.312;101.728;2023-04-01T00:59:28;97775.47;;;-6.01;54.69
45129;BME280;35512;56.312;101.728;2023-04-01T01:01:59;97777.28;;;-5.71;53.88
45129;BME280;35512;56.312;101.728;2023-04-01T01:04:32;97781.31;;;-5.14;53.59
45129;BME280;35512;56.312;101.728;2023-04-01T01:15:12;97793.63;;;-0.68;52.04
45129;BME280;35512;56.312;101.728;2023-04-01T01:23:55;97794.44;;;1.27;51.54
45129;BME280;35512;56.312;101.728;2023-04-01T01:35:22;97805.13;;;2.68;50.61
45129;BME280;35512;56.312;101.728;2023-04-01T01:38:02;97820.09;;;3.03;49.23
45129;BME280;35512;56.312;101.728;2023-04-01T01:40:34;97814.41;;;3.45;49.10
45129;BME280;35512;56.312;101.728;2023-04-01T01:43:09;97818.03;;;4.07;48.97
45129;BME280;35512;56.312;101.728;2023-04-01T01:45:44;97822.63;;;4.69;48.49
45129;BME280;35512;56.312;101.728;2023-04-01T01:48:24;97830.00;;;4.97;47.64
45129;BME280;35512;56.312;101.728;2023-04-01T01:50:56;97834.69;;;4.48;46.57
45129;BME280;35512;56.312;101.728;2023-04-01T01:53:26;97840.22;;;3.84;47.15
45129;BME280;35512;56.312;101.728;2023-04-01T01:55:55;97842.72;;;3.75;48.01
45129;BME280;35512;56.312;101.728;2023-04-01T01:58:37;97842.81;;;3.65;46.66
45129;BME280;35512;56.312;101.728;2023-04-01T02:01:17;97833.75;;;1.86;46.07
45129;BME280;35512;56.312;101.728;2023-04-01T02:03:50;97854.06;;;1.46;47.77
45129;BME280;35512;56.312;101.728;2023-04-01T02:06:23;97849.63;;;2.23;48.41
45129;BME280;35512;56.312;101.728;2023-04-01T02:09:12;97856.31;;;3.15;47.23
45129;BME280;35512;56.312;101.728;2023-04-01T02:11:47;97855.47;;;3.83;46.73
45129;BME280;35512;56.312;101.728;2023-04-01T02:14:23;97860.94;;;4.65;45.77
45129;BME280;35512;56.312;101.728;2023-04-01T02:17:22;97858.13;;;5.32;44.75
45129;BME280;35512;56.312;101.728;2023-04-01T02:20:09;97855.34;;;5.84;44.24
45129;BME280;35512;56.312;101.728;2023-04-01T02:22:49;97851.94;;;6.39;44.36
45129;BME280;35512;56.312;101.728;2023-04-01T02:25:26;97856.94;;;6.83;43.38
45129;BME280;35512;56.312;101.728;2023-04-01T02:27:58;97862.28;;;6.18;40.05
45129;BME280;35512;56.312;101.728;2023-04-01T02:30:29;97872.16;;;4.23;40.88
45129;BME280;35512;56.312;101.728;2023-04-01T02:33:01;97876.94;;;2.59;41.96
45129;BME280;35512;56.312;101.728;2023-04-01T02:35:35;97875.09;;;1.48;42.87
45129;BME280;35512;56.312;101.728;2023-04-01T02:38:07;97882.16;;;0.55;43.86
45129;BME280;35512;56.312;101.728;2023-04-01T02:40:49;97880.28;;;-0.03;43.47
45129;BME280;35512;56.312;101.728;2023-04-01T02:43:18;97880.41;;;-0.63;43.46
45129;BME280;35512;56.312;101.728;2023-04-01T02:45:48;97889.66;;;-1.25;43.79
45129;BME280;35512;56.312;101.728;2023-04-01T02:48:18;97890.59;;;-1.59;43.35
45129;BME280;35512;56.312;101.728;2023-04-01T02:50:48;97893.50;;;-1.11;44.06
45129;BME280;35512;56.312;101.728;2023-04-01T02:53:17;97894.47;;;-0.25;43.49
45129;BME280;35512;56.312;101.728;2023-04-01T02:55:46;97892.75;;;0.49;41.48
45129;BME280;35512;56.312;101.728;2023-04-01T02:58:18;97896.16;;;-0.08;40.70
45129;BME280;35512;56.312;101.728;2023-04-01T03:00:48;97900.78;;;0.70;42.76
45129;BME280;35512;56.312;101.728;2023-04-01T03:03:17;97900.59;;;2.71;41.74
45129;BME280;35512;56.312;101.728;2023-04-01T03:05:48;97898.50;;;3.52;39.54
45129;BME280;35512;56.312;101.728;2023-04-01T03:08:19;97899.56;;;3.17;39.04
45129;BME280;35512;56.312;101.728;2023-04-01T03:10:48;97901.06;;;2.23;39.34
45129;BME280;35512;56.312;101.728;2023-04-01T03:13:17;97913.66;;;1.04;39.65
45129;BME280;35512;56.312;101.728;2023-04-01T03:15:45;97902.25;;;-0.13;40.50
45129;BME280;35512;56.312;101.728;2023-04-01T03:18:15;97909.00;;;-0.70;41.04
45129;BME280;35512;56.312;101.728;2023-04-01T03:20:44;97912.88;;;-0.51;41.06
45129;BME280;35512;56.312;101.728;2023-04-01T03:23:14;97910.44;;;0.28;41.31
45129;BME280;35512;56.312;101.728;2023-04-01T03:25:45;97909.59;;;2.91;41.11
45129;BME280;35512;56.312;101.728;2023-04-01T03:28:15;97907.84;;;5.00;39.13
45129;BME280;35512;56.312;101.728;2023-04-01T03:30:44;97903.84;;;5.55;37.74
45129;BME280;35512;56.312;101.728;2023-04-01T03:33:13;97899.91;;;5.99;37.64
45129;BME280;35512;56.312;101.728;2023-04-01T03:35:42;97904.47;;;5.99;37.40
45129;BME280;35512;56.312;101.728;2023-04-01T03:38:11;97902.66;;;5.09;35.92
45129;BME280;35512;56.312;101.728;2023-04-01T03:40:42;97919.78;;;3.92;37.09
45129;BME280;35512;56.312;101.728;2023-04-01T03:43:12;97923.34;;;4.84;37.85
45129;BME280;35512;56.312;101.728;2023-04-01T03:45:45;97921.53;;;4.99;37.43
45129;BME280;35512;56.312;101.728;2023-04-01T03:48:15;97912.94;;;4.34;37.29
45129;BME280;35512;56.312;101.728;2023-04-01T03:50:44;97917.16;;;3.87;37.99
45129;BME280;35512;56.312;101.728;2023-04-01T03:53:14;97916.00;;;4.22;38.07
45129;BME280;35512;56.312;101.728;2023-04-01T03:55:45;97920.88;;;4.45;36.33
45129;BME280;35512;56.312;101.728;2023-04-01T03:58:16;97920.28;;;4.48;36.86
45129;BME280;35512;56.312;101.728;2023-04-01T04:00:45;97916.88;;;5.23;37.10
45129;BME280;35512;56.312;101.728;2023-04-01T04:03:15;97917.84;;;5.66;36.92
45129;BME280;35512;56.312;101.728;2023-04-01T04:05:48;97919.94;;;7.36;36.98
45129;BME280;35512;56.312;101.728;2023-04-01T04:08:18;97919.47;;;8.02;35.76
45129;BME280;35512;56.312;101.728;2023-04-01T04:10:56;97914.47;;;9.24;36.03
45129;BME280;35512;56.312;101.728;2023-04-01T04:13:25;97912.75;;;10.88;33.64
45129;BME280;35512;56.312;101.728;2023-04-01T04:16:00;97917.28;;;9.80;32.83
45129;BME280;35512;56.312;101.728;2023-04-01T04:18:30;97913.13;;;8.38;32.22
45129;BME280;35512;56.312;101.728;2023-04-01T04:20:59;97924.97;;;6.22;33.15
45129;BME280;35512;56.312;101.728;2023-04-01T04:23:27;97930.47;;;4.46;34.59
45129;BME280;35512;56.312;101.728;2023-04-01T04:26:06;97921.66;;;3.28;35.69
45129;BME280;35512;56.312;101.728;2023-04-01T04:28:35;97935.97;;;3.77;36.28
45129;BME280;35512;56.312;101.728;2023-04-01T04:31:04;97928.81;;;4.93;35.50
45129;BME280;35512;56.312;101.728;2023-04-01T04:33:37;97925.31;;;5.69;33.98
45129;BME280;35512;56.312;101.728;2023-04-01T04:36:06;97934.09;;;5.88;33.31
45129;BME280;35512;56.312;101.728;2023-04-01T04:38:35;97928.34;;;6.14;33.46
45129;BME280;35512;56.312;101.728;2023-04-01T04:41:14;97930.28;;;5.04;32.02
45129;BME280;35512;56.312;101.728;2023-04-01T04:43:51;97944.22;;;3.80;32.96
45129;BME280;35512;56.312;101.728;2023-04-01T04:46:22;97938.53;;;4.89;33.75
45129;BME280;35512;56.312;101.728;2023-04-01T04:48:57;97933.53;;;5.01;32.20
45129;BME280;35512;56.312;101.728;2023-04-01T04:51:26;97938.44;;;4.51;32.82
45129;BME280;35512;56.312;101.728;2023-04-01T04:53:55;97942.66;;;5.19;33.67
45129;BME280;35512;56.312;101.728;2023-04-01T04:56:37;97931.41;;;5.74;33.02
45129;BME280;35512;56.312;101.728;2023-04-01T04:59:08;97945.63;;;5.18;33.03
45129;BME280;35512;56.312;101.728;2023-04-01T05:01:46;97956.03;;;4.33;33.46
45129;BME280;35512;56.312;101.728;2023-04-01T05:04:16;97954.09;;;3.45;33.50
45129;BME280;35512;56.312;101.728;2023-04-01T05:06:45;97961.66;;;2.78;34.40
45129;BME280;35512;56.312;101.728;2023-04-01T05:09:14;97957.97;;;3.29;34.28
45129;BME280;35512;56.312;101.728;2023-04-01T05:11:44;97960.16;;;5.69;34.07
45129;BME280;35512;56.312;101.728;2023-04-01T05:14:15;97954.88;;;8.26;31.68
45129;BME280;35512;56.312;101.728;2023-04-01T05:16:52;97955.84;;;10.85;31.04
45129;BME280;35512;56.312;101.728;2023-04-01T05:19:22;97958.38;;;13.03;29.96
45129;BME280;35512;56.312;101.728;2023-04-01T05:21:51;97958.75;;;14.87;29.84
45129;BME280;35512;56.312;101.728;2023-04-01T05:24:21;97936.13;;;15.58;29.03
45129;BME280;35512;56.312;101.728;2023-04-01T05:26:51;97940.69;;;15.15;27.38
45129;BME280;35512;56.312;101.728;2023-04-01T05:29:24;97944.06;;;15.28;28.59
45129;BME280;35512;56.312;101.728;2023-04-01T05:32:00;97966.09;;;12.89;28.82
45129;BME280;35512;56.312;101.728;2023-04-01T05:34:29;97963.41;;;11.42;30.72
45129;BME280;35512;56.312;101.728;2023-04-01T05:36:58;97953.59;;;12.13;31.22
45129;BME280;35512;56.312;101.728;2023-04-01T05:39:27;97970.06;;;12.91;29.14
45129;BME280;35512;56.312;101.728;2023-04-01T05:41:57;97962.91;;;12.04;28.74
45129;BME280;35512;56.312;101.728;2023-04-01T05:44:26;97966.69;;;10.37;29.22
45129;BME280;35512;56.312;101.728;2023-04-01T05:47:18;97970.66;;;8.19;30.64
45129;BME280;35512;56.312;101.728;2023-04-01T05:49:48;97969.53;;;6.79;31.13
45129;BME280;35512;56.312;101.728;2023-04-01T05:52:17;97972.94;;;5.58;31.68
45129;BME280;35512;56.312;101.728;2023-04-01T05:54:46;97987.69;;;4.74;31.81
45129;BME280;35512;56.312;101.728;2023-04-01T05:57:15;97984.06;;;5.08;32.02
45129;BME280;35512;56.312;101.728;2023-04-01T05:59:45;97979.13;;;7.58;31.82
45129;BME280;35512;56.312;101.728;2023-04-01T06:02:17;97985.03;;;10.61;29.44
45129;BME280;35512;56.312;101.728;2023-04-01T06:04:47;97980.59;;;12.22;28.38
45129;BME280;35512;56.312;101.728;2023-04-01T06:07:19;97984.94;;;11.81;27.20
45129;BME280;35512;56.312;101.728;2023-04-01T06:09:48;97993.81;;;10.32;28.29
45129;BME280;35512;56.312;101.728;2023-04-01T06:15:28;97988.34;;;10.02;29.16
45129;BME280;35512;56.312;101.728;2023-04-01T06:26:39;97990.09;;;8.39;30.22
45129;BME280;35512;56.312;101.728;2023-04-01T06:29:41;97997.53;;;9.92;27.96
45129;BME280;35512;56.312;101.728;2023-04-01T06:47:25;98005.72;;;2.70;30.19
45129;BME280;35512;56.312;101.728;2023-04-01T06:53:38;98006.63;;;3.10;31.27
45129;BME280;35512;56.312;101.728;2023-04-01T06:56:30;98003.31;;;6.52;29.96
45129;BME280;35512;56.312;101.728;2023-04-01T06:59:13;98008.31;;;9.22;28.63
45129;BME280;35512;56.312;101.728;2023-04-01T07:04:44;97998.06;;;13.08;25.95
45129;BME280;35512;56.312;101.728;2023-04-01T07:07:39;98003.81;;;12.69;25.86
45129;BME280;35512;56.312;101.728;2023-04-01T07:13:59;98025.16;;;6.46;27.43
45129;BME280;35512;56.312;101.728;2023-04-01T07:16:39;98018.13;;;5.02;28.54
45129;BME280;35512;56.312;101.728;2023-04-01T07:22:29;98009.75;;;2.62;29.57
45129;BME280;35512;56.312;101.728;2023-04-01T07:27:53;98016.75;;;2.32;29.51
45129;BME280;35512;56.312;101.728;2023-04-01T07:30:30;98017.56;;;2.02;29.55
45129;BME280;35512;56.312;101.728;2023-04-01T07:35:55;98013.69;;;1.10;29.57
45129;BME280;35512;56.312;101.728;2023-04-01T07:44:49;98002.63;;;9.41;27.65
45129;BME280;35512;56.312;101.728;2023-04-01T07:51:05;97996.91;;;12.84;24.92
45129;BME280;35512;56.312;101.728;2023-04-01T07:56:36;98006.09;;;11.79;23.11
45129;BME280;35512;56.312;101.728;2023-04-01T08:08:37;98001.97;;;14.93;22.99
45129;BME280;35512;56.312;101.728;2023-04-01T08:23:15;97999.97;;;11.70;23.50
45129;BME280;35512;56.312;101.728;2023-04-01T08:28:54;98026.28;;;10.14;22.42
45129;BME280;35512;56.312;101.728;2023-04-01T08:34:25;98021.09;;;8.59;21.70
45129;BME280;35512;56.312;101.728;2023-04-01T08:37:12;98023.91;;;6.10;22.49
45129;BME280;35512;56.312;101.728;2023-04-01T08:39:48;98028.47;;;4.07;23.93
45129;BME280;35512;56.312;101.728;2023-04-01T08:42:39;98033.72;;;2.73;24.98
45129;BME280;35512;56.312;101.728;2023-04-01T08:54:46;98035.81;;;-0.12;25.60
45129;BME280;35512;56.312;101.728;2023-04-01T09:00:53;98038.72;;;-0.96;26.26
45129;BME280;35512;56.312;101.728;2023-04-01T09:12:24;98050.25;;;-1.07;26.95
45129;BME280;35512;56.312;101.728;2023-04-01T09:18:58;98055.44;;;-1.57;27.21
45129;BME280;35512;56.312;101.728;2023-04-01T09:21:40;98055.50;;;-1.85;27.57
45129;BME280;35512;56.312;101.728;2023-04-01T09:36:14;98063.53;;;-3.01;28.25
45129;BME280;35512;56.312;101.728;2023-04-01T09:39:09;98069.31;;;-3.16;28.69
45129;BME280;35512;56.312;101.728;2023-04-01T09:44:47;98056.59;;;-3.31;29.04
45129;BME280;35512;56.312;101.728;2023-04-01T09:56:54;98068.72;;;-3.06;29.21
45129;BME280;35512;56.312;101.728;2023-04-01T10:02:54;98084.75;;;-3.36;29.53
45129;BME280;35512;56.312;101.728;2023-04-01T10:14:40;98093.16;;;-4.48;30.22
45129;BME280;35512;56.312;101.728;2023-04-01T10:20:55;98109.03;;;-5.03;30.70
45129;BME280;35512;56.312;101.728;2023-04-01T10:32:48;98134.09;;;-5.38;31.25
45129;BME280;35512;56.312;101.728;2023-04-01T11:09:06;98185.44;;;-7.02;33.18
45129;BME280;35512;56.312;101.728;2023-04-01T11:14:53;98197.56;;;-7.14;33.06
45129;BME280;35512;56.312;101.728;2023-04-01T11:29:38;98222.81;;;-7.60;33.85
45129;BME280;35512;56.312;101.728;2023-04-01T11:32:59;98220.16;;;-7.80;33.82
45129;BME280;35512;56.312;101.728;2023-04-01T11:35:38;98225.78;;;-7.90;33.78
45129;BME280;35512;56.312;101.728;2023-04-01T11:38:35;98226.97;;;-7.99;34.15
45129;BME280;35512;56.312;101.728;2023-04-01T11:45:24;98247.88;;;-8.26;34.07
45129;BME280;35512;56.312;101.728;2023-04-01T11:52:21;98249.00;;;-8.42;34.28
45129;BME280;35512;56.312;101.728;2023-04-01T11:54:44;98255.44;;;-8.51;34.62
45129;BME280;35512;56.312;101.728;2023-04-01T11:58:10;98264.50;;;-8.54;34.45
45129;BME280;35512;56.312;101.728;2023-04-01T12:11:38;98284.63;;;-8.89;35.24
45129;BME280;35512;56.312;101.728;2023-04-01T12:17:32;98296.50;;;-8.93;35.01
45129;BME280;35512;56.312;101.728;2023-04-01T12:26:13;98320.78;;;-9.06;35.29
45129;BME280;35512;56.312;101.728;2023-04-01T12:28:41;98318.50;;;-9.16;35.45
45129;BME280;35512;56.312;101.728;2023-04-01T12:34:28;98328.44;;;-9.26;35.38
45129;BME280;35512;56.312;101.728;2023-04-01T12:45:44;98331.19;;;-9.56;35.66
45129;BME280;35512;56.312;101.728;2023-04-01T12:48:16;98348.50;;;-9.55;35.60
45129;BME280;35512;56.312;101.728;2023-04-01T12:51:12;98347.44;;;-9.61;35.76
45129;BME280;35512;56.312;101.728;2023-04-01T12:58:10;98362.16;;;-9.75;35.62
45129;BME280;35512;56.312;101.728;2023-04-01T13:06:15;98363.81;;;-9.89;35.88
45129;BME280;35512;56.312;101.728;2023-04-01T13:09:00;98371.22;;;-9.92;35.91
45129;BME280;35512;56.312;101.728;2023-04-01T13:11:54;98371.38;;;-9.94;36.66
45129;BME280;35512;56.312;101.728;2023-04-01T13:23:24;98390.59;;;-10.02;36.58
45129;BME280;35512;56.312;101.728;2023-04-01T13:31:55;98394.84;;;-10.15;36.34
45129;BME280;35512;56.312;101.728;2023-04-01T13:39:51;98393.41;;;-10.33;36.57
45129;BME280;35512;56.312;101.728;2023-04-01T13:42:38;98396.13;;;-10.41;37.09
45129;BME280;35512;56.312;101.728;2023-04-01T13:48:15;98409.16;;;-10.56;37.28
45129;BME280;35512;56.312;101.728;2023-04-01T14:03:08;98418.78;;;-10.57;36.99
45129;BME280;35512;56.312;101.728;2023-04-01T14:11:35;98415.09;;;-10.62;36.90
45129;BME280;35512;56.312;101.728;2023-04-01T14:17:03;98411.91;;;-10.73;37.26
45129;BME280;35512;56.312;101.728;2023-04-01T14:22:38;98416.03;;;-10.78;37.82
45129;BME280;35512;56.312;101.728;2023-04-01T14:26:07;98416.19;;;-10.80;37.34
45129;BME280;35512;56.312;101.728;2023-04-01T14:44:23;98433.28;;;-10.92;37.99
45129;BME280;35512;56.312;101.728;2023-04-01T14:47:11;98439.03;;;-10.97;38.15
45129;BME280;35512;56.312;101.728;2023-04-01T14:50:02;98439.88;;;-11.05;38.09
45129;BME280;35512;56.312;101.728;2023-04-01T14:52:36;98436.16;;;-11.10;37.84
45129;BME280;35512;56.312;101.728;2023-04-01T14:58:15;98443.81;;;-11.09;38.23
45129;BME280;35512;56.312;101.728;2023-04-01T15:00:58;98445.81;;;-11.11;38.13
45129;BME280;35512;56.312;101.728;2023-04-01T15:06:35;98455.22;;;-11.10;38.29
45129;BME280;35512;56.312;101.728;2023-04-01T15:09:24;98454.44;;;-11.10;38.13
45129;BME280;35512;56.312;101.728;2023-04-01T15:17:43;98454.78;;;-11.13;38.17
45129;BME280;35512;56.312;101.728;2023-04-01T15:20:32;98464.41;;;-11.14;38.30
45129;BME280;35512;56.312;101.728;2023-04-01T15:23:24;98464.31;;;-11.20;38.32
45129;BME280;35512;56.312;101.728;2023-04-01T15:40:27;98485.22;;;-11.37;38.82
45129;BME280;35512;56.312;101.728;2023-04-01T15:43:22;98484.72;;;-11.32;38.69
45129;BME280;35512;56.312;101.728;2023-04-01T15:48:57;98486.41;;;-11.40;38.76
45129;BME280;35512;56.312;101.728;2023-04-01T16:23:15;98493.19;;;-11.70;39.32
45129;BME280;35512;56.312;101.728;2023-04-01T16:28:53;98503.63;;;-11.70;39.25
45129;BME280;35512;56.312;101.728;2023-04-01T16:31:35;98506.88;;;-11.68;39.31
45129;BME280;35512;56.312;101.728;2023-04-01T16:34:31;98503.13;;;-11.65;39.18
45129;BME280;35512;56.312;101.728;2023-04-01T16:37:09;98496.63;;;-11.69;39.64
45129;BME280;35512;56.312;101.728;2023-04-01T16:42:51;98504.44;;;-11.69;39.62
45129;BME280;35512;56.312;101.728;2023-04-01T16:45:43;98507.34;;;-11.64;39.41
45129;BME280;35512;56.312;101.728;2023-04-01T16:51:12;98506.72;;;-11.66;39.60
45129;BME280;35512;56.312;101.728;2023-04-01T16:53:50;98508.81;;;-11.62;39.73
45129;BME280;35512;56.312;101.728;2023-04-01T16:56:28;98507.50;;;-11.66;39.68
45129;BME280;35512;56.312;101.728;2023-04-01T16:59:53;98521.22;;;-11.64;39.49
45129;BME280;35512;56.312;101.728;2023-04-01T17:02:02;98516.63;;;-11.62;39.68
45129;BME280;35512;56.312;101.728;2023-04-01T17:04:45;98515.66;;;-11.61;39.87
45129;BME280;35512;56.312;101.728;2023-04-01T17:15:36;98522.13;;;-11.48;40.12
45129;BME280;35512;56.312;101.728;2023-04-01T17:24:00;98524.75;;;-11.57;39.73
45129;BME280;35512;56.312;101.728;2023-04-01T17:26:46;98518.78;;;-11.65;40.07
45129;BME280;35512;56.312;101.728;2023-04-01T17:29:22;98527.72;;;-11.60;40.31
45129;BME280;35512;56.312;101.728;2023-04-01T17:32:13;98531.13;;;-11.59;40.09
45129;BME280;35512;56.312;101.728;2023-04-01T17:35:01;98536.84;;;-11.64;40.21
45129;BME280;35512;56.312;101.728;2023-04-01T17:58:30;98530.19;;;-11.75;40.26
45129;BME280;35512;56.312;101.728;2023-04-01T18:00:58;98533.16;;;-11.78;40.77
45129;BME280;35512;56.312;101.728;2023-04-01T18:23:31;98532.22;;;-12.01;41.01
45129;BME280;35512;56.312;101.728;2023-04-01T18:26:13;98529.81;;;-12.11;41.12
45129;BME280;35512;56.312;101.728;2023-04-01T18:28:52;98528.19;;;-12.20;40.93
45129;BME280;35512;56.312;101.728;2023-04-01T18:31:31;98527.22;;;-12.19;40.91
45129;BME280;35512;56.312;101.728;2023-04-01T18:46:17;98529.31;;;-12.15;40.91
45129;BME280;35512;56.312;101.728;2023-04-01T18:54:33;98521.34;;;-12.21;41.40
45129;BME280;35512;56.312;101.728;2023-04-01T18:57:13;98521.34;;;-12.30;41.39
45129;BME280;35512;56.312;101.728;2023-04-01T18:59:46;98520.88;;;-12.42;41.26
45129;BME280;35512;56.312;101.728;2023-04-01T19:02:25;98522.81;;;-12.52;41.39
45129;BME280;35512;56.312;101.728;2023-04-01T19:10:23;98524.06;;;-12.97;41.73
45129;BME280;35512;56.312;101.728;2023-04-01T19:18:50;98508.63;;;-13.07;41.78
45129;BME280;35512;56.312;101.728;2023-04-01T19:21:29;98512.81;;;-13.06;41.82
45129;BME280;35512;56.312;101.728;2023-04-01T19:30:25;98499.16;;;-13.16;41.69
45129;BME280;35512;56.312;101.728;2023-04-01T19:38:53;98511.41;;;-13.00;42.12
45129;BME280;35512;56.312;101.728;2023-04-01T19:41:48;98503.09;;;-13.04;42.17
45129;BME280;35512;56.312;101.728;2023-04-01T19:44:24;98520.66;;;-12.98;41.79
45129;BME280;35512;56.312;101.728;2023-04-01T19:47:24;98504.56;;;-13.10;41.96
45129;BME280;35512;56.312;101.728;2023-04-01T19:53:04;98523.09;;;-13.04;41.85
45129;BME280;35512;56.312;101.728;2023-04-01T19:55:47;98517.56;;;-13.10;42.38
45129;BME280;35512;56.312;101.728;2023-04-01T19:58:26;98521.44;;;-13.14;42.33
45129;BME280;35512;56.312;101.728;2023-04-01T20:01:03;98516.69;;;-13.18;42.25
45129;BME280;35512;56.312;101.728;2023-04-01T20:03:45;98518.66;;;-13.20;42.44
45129;BME280;35512;56.312;101.728;2023-04-01T20:25:25;98520.88;;;-13.50;42.68
45129;BME280;35512;56.312;101.728;2023-04-01T20:33:35;98520.09;;;-13.43;42.79
45129;BME280;35512;56.312;101.728;2023-04-01T20:40:06;98528.00;;;-13.52;42.83
45129;BME280;35512;56.312;101.728;2023-04-01T20:42:24;98519.22;;;-13.51;42.63
45129;BME280;35512;56.312;101.728;2023-04-01T20:51:14;98521.00;;;-13.60;42.88
45129;BME280;35512;56.312;101.728;2023-04-01T20:59:24;98518.69;;;-13.63;42.93
45129;BME280;35512;56.312;101.728;2023-04-01T21:10:46;98531.69;;;-13.63;42.98
45129;BME280;35512;56.312;101.728;2023-04-01T21:13:47;98538.31;;;-13.69;43.22
45129;BME280;35512;56.312;101.728;2023-04-01T21:16:53;98533.59;;;-13.73;43.26
45129;BME280;35512;56.312;101.728;2023-04-01T21:25:21;98540.97;;;-13.87;43.20
45129;BME280;35512;56.312;101.728;2023-04-01T21:39:31;98540.25;;;-14.05;43.19
45129;BME280;35512;56.312;101.728;2023-04-01T21:42:56;98538.41;;;-14.13;43.35
45129;BME280;35512;56.312;101.728;2023-04-01T21:45:59;98538.09;;;-14.10;43.35
45129;BME280;35512;56.312;101.728;2023-04-01T21:51:36;98543.59;;;-14.13;43.40
45129;BME280;35512;56.312;101.728;2023-04-01T22:05:42;98556.09;;;-14.35;43.62
45129;BME280;35512;56.312;101.728;2023-04-01T22:11:18;98563.97;;;-14.45;43.58
45129;BME280;35512;56.312;101.728;2023-04-01T22:16:39;98564.69;;;-14.52;43.95
45129;BME280;35512;56.312;101.728;2023-04-01T22:27:21;98566.25;;;-14.59;43.90
45129;BME280;35512;56.312;101.728;2023-04-01T22:35:33;98575.41;;;-14.73;43.93
45129;BME280;35512;56.312;101.728;2023-04-01T22:41:33;98576.91;;;-14.71;43.72
45129;BME280;35512;56.312;101.728;2023-04-01T22:50:15;98582.78;;;-14.60;43.98
45129;BME280;35512;56.312;101.728;2023-04-01T22:52:50;98586.50;;;-14.63;43.97
45129;BME280;35512;56.312;101.728;2023-04-01T22:55:25;98595.13;;;-14.63;43.81
45129;BME280;35512;56.312;101.728;2023-04-01T22:58:09;98593.69;;;-14.57;44.12
45129;BME280;35512;56.312;101.728;2023-04-01T23:00:49;98584.28;;;-14.58;44.16
45129;BME280;35512;56.312;101.728;2023-04-01T23:03:43;98598.50;;;-14.44;44.12
45129;BME280;35512;56.312;101.728;2023-04-01T23:06:27;98595.59;;;-14.41;44.09
45129;BME280;35512;56.312;101.728;2023-04-01T23:12:09;98591.53;;;-14.25;44.33
45129;BME280;35512;56.312;101.728;2023-04-01T23:17:52;98595.59;;;-14.23;44.19
45129;BME280;35512;56.312;101.728;2023-04-01T23:20:31;98596.94;;;-14.19;44.11
45129;BME280;35512;56.312;101.728;2023-04-01T23:25:53;98599.13;;;-14.06;44.35
45129;BME280;35512;56.312;101.728;2023-04-01T23:28:49;98596.75;;;-13.99;44.56
45129;BME280;35512;56.312;101.728;2023-04-01T23:31:34;98600.03;;;-13.97;44.34
45129;BME280;35512;56.312;101.728;2023-04-01T23:34:29;98609.13;;;-13.93;44.51
45129;BME280;35512;56.312;101.728;2023-04-01T23:37:04;98603.31;;;-13.87;44.25
45129;BME280;35512;56.312;101.728;2023-04-01T23:39:39;98598.50;;;-13.82;44.51
45129;BME280;35512;56.312;101.728;2023-04-01T23:45:00;98609.22;;;-13.50;44.46
45129;BME280;35512;56.312;101.728;2023-04-01T23:47:36;98607.66;;;-13.35;44.31
45129;BME280;35512;56.312;101.728;2023-04-01T23:50:23;98610.97;;;-13.24;44.48
45129;BME280;35512;56.312;101.728;2023-04-01T23:53:11;98611.78;;;-13.16;44.39
45129;BME280;35512;56.312;101.728;2023-04-01T23:55:42;98610.69;;;-13.05;44.61
45129;BME280;35512;56.312;101.728;2023-04-01T23:58:23;98616.59;;;-12.95;44.62
